Time;durP1;ratioP1;P1;durP2;ratioP2;P2;SDS_P1;SDS_P2;PMS_P1;PMS_P2;Temp;Humidity;BMP_temperature;BMP_pressure;BME280_temperature;BME280_humidity;BME280_pressure;Samples;Min_cycle;Max_cycle;Signal;HPM_P1;HPM_P2
2023/03/01 00:01:29;;;;;;;8.88;4.75;;;4.10;65.50;;;;;;5073082;28;20025;-73
2023/03/01 00:03:55;;;;;;;8.48;4.30;;;4.00;65.50;;;;;;5082535;28;20047;-74
2023/03/01 00:06:22;;;;;;;8.05;4.07;;;4.00;65.10;;;;;;5077955;28;20043;-74
2023/03/01 00:08:48;;;;;;;9.43;4.65;;;4.00;65.40;;;;;;5087163;28;20073;-73
2023/03/01 00:11:20;;;;;;;7.30;4.38;;;3.90;65.00;;;;;;5078075;28;20020;-74
2023/03/01 00:13:48;;;;;;;8.98;5.07;;;3.90;65.30;;;;;;5068031;28;20028;-74
2023/03/01 00:16:18;;;;;;;10.23;5.28;;;3.90;66.30;;;;;;5077265;28;20029;-74
2023/03/01 00:18:44;;;;;;;8.07;4.68;;;3.90;67.00;;;;;;5089450;28;20081;-73
2023/03/01 00:21:10;;;;;;;7.65;4.82;;;3.90;65.80;;;;;;5083731;28;20036;-74
2023/03/01 00:23:36;;;;;;;8.13;5.55;;;3.90;65.50;;;;;;5069433;28;20041;-75
2023/03/01 00:26:06;;;;;;;7.95;4.80;;;3.80;65.40;;;;;;5080743;28;20417;-74
2023/03/01 00:28:32;;;;;;;9.63;5.27;;;3.80;65.80;;;;;;5088418;28;21118;-74
2023/03/01 00:31:06;;;;;;;8.63;5.22;;;3.80;66.40;;;;;;5085088;28;20027;-74
2023/03/01 00:33:31;;;;;;;13.10;6.15;;;3.70;66.50;;;;;;5086035;28;20024;-75
2023/03/01 00:36:00;;;;;;;10.48;5.50;;;3.70;66.60;;;;;;5080075;28;20111;-74
2023/03/01 00:38:26;;;;;;;10.50;5.88;;;3.60;67.00;;;;;;5087380;28;20028;-75
2023/03/01 00:40:51;;;;;;;9.63;5.43;;;3.60;67.40;;;;;;5086916;28;20028;-74
2023/03/01 00:43:17;;;;;;;11.27;5.97;;;3.60;67.80;;;;;;5075602;28;20028;-75
2023/03/01 00:45:43;;;;;;;7.78;5.50;;;3.50;67.90;;;;;;5072991;28;20044;-75
2023/03/01 00:48:09;;;;;;;12.38;6.05;;;3.50;69.10;;;;;;5084341;28;20020;-74
2023/03/01 00:50:34;;;;;;;8.82;5.88;;;3.50;67.80;;;;;;5081567;28;20550;-73
2023/03/01 00:53:00;;;;;;;13.32;6.40;;;3.50;67.80;;;;;;5083576;28;20029;-75
2023/03/01 00:55:26;;;;;;;10.63;6.75;;;3.50;67.70;;;;;;5074369;28;20017;-74
2023/03/01 00:57:52;;;;;;;11.23;6.90;;;3.40;67.50;;;;;;5082309;28;20055;-75
2023/03/01 01:00:18;;;;;;;11.65;6.63;;;3.40;67.40;;;;;;5092001;28;20057;-73
2023/03/01 01:02:44;;;;;;;11.45;7.03;;;3.40;67.60;;;;;;5090733;28;20099;-74
2023/03/01 01:05:10;;;;;;;12.93;7.20;;;3.30;68.10;;;;;;5092569;28;20122;-74
2023/03/01 01:07:36;;;;;;;11.50;6.93;;;3.30;68.30;;;;;;5077096;28;20080;-73
2023/03/01 01:10:02;;;;;;;11.63;7.25;;;3.30;69.00;;;;;;5093112;28;20055;-73
2023/03/01 01:12:28;;;;;;;10.45;6.28;;;3.20;68.50;;;;;;5081874;28;20513;-75
2023/03/01 01:14:54;;;;;;;10.88;7.50;;;3.20;68.50;;;;;;5091374;28;20048;-74
2023/03/01 01:17:20;;;;;;;11.65;7.05;;;3.20;68.60;;;;;;5083316;28;20043;-75
2023/03/01 01:19:45;;;;;;;11.50;7.25;;;3.20;68.50;;;;;;5088483;28;20482;-74
2023/03/01 01:22:12;;;;;;;12.25;7.50;;;3.10;69.20;;;;;;5087597;28;20457;-73
2023/03/01 01:24:37;;;;;;;10.32;7.30;;;3.10;69.10;;;;;;5078615;28;20036;-74
2023/03/01 01:27:03;;;;;;;10.77;7.25;;;3.10;69.00;;;;;;5085090;28;20025;-73
2023/03/01 01:29:29;;;;;;;11.57;7.20;;;3.00;69.00;;;;;;5080644;28;20035;-74
2023/03/01 01:31:54;;;;;;;14.25;7.68;;;3.00;69.10;;;;;;5075898;28;20027;-74
2023/03/01 01:34:22;;;;;;;13.15;7.82;;;3.00;69.40;;;;;;5081870;28;20028;-74
2023/03/01 01:36:49;;;;;;;10.73;6.60;;;3.00;70.00;;;;;;5090733;28;20024;-74
2023/03/01 01:39:15;;;;;;;11.73;6.95;;;3.00;69.90;;;;;;5080863;28;20066;-73
2023/03/01 01:41:42;;;;;;;12.02;7.65;;;2.90;70.10;;;;;;5091554;28;20064;-74
2023/03/01 01:44:23;;;;;;;13.40;8.30;;;2.90;70.20;;;;;;5079662;28;20486;-73
2023/03/01 01:47:01;;;;;;;13.38;7.63;;;2.90;69.80;;;;;;5092013;28;20097;-73
2023/03/01 01:49:41;;;;;;;11.27;7.88;;;2.90;69.90;;;;;;5080535;28;20032;-74
2023/03/01 01:52:30;;;;;;;15.40;8.27;;;2.90;70.50;;;;;;5092362;28;20052;-74
2023/03/01 01:55:02;;;;;;;12.95;7.78;;;2.90;70.10;;;;;;5082510;28;20028;-75
2023/03/01 01:57:41;;;;;;;12.40;7.57;;;2.80;70.30;;;;;;5072604;28;20028;-74
2023/03/01 02:00:14;;;;;;;11.52;6.97;;;2.80;70.30;;;;;;5090115;28;20090;-74
2023/03/01 02:02:42;;;;;;;11.43;7.40;;;2.80;71.80;;;;;;5089432;28;20024;-74
2023/03/01 02:05:22;;;;;;;9.30;6.47;;;2.90;74.60;;;;;;5085357;28;20040;-74
2023/03/01 02:07:49;;;;;;;10.35;7.30;;;2.90;72.10;;;;;;5089163;28;20044;-74
2023/03/01 02:10:15;;;;;;;14.18;7.03;;;2.90;71.30;;;;;;5080279;28;20062;-74
2023/03/01 02:12:41;;;;;;;12.15;7.43;;;2.80;70.70;;;;;;5091578;28;20063;-74
2023/03/01 02:15:07;;;;;;;12.43;7.00;;;2.80;72.70;;;;;;5077758;28;20028;-73
2023/03/01 02:17:34;;;;;;;11.30;7.70;;;2.80;71.80;;;;;;5091427;28;20542;-74
2023/03/01 02:20:37;;;;;;;11.65;7.40;;;2.80;71.20;;;;;;5082005;28;20376;-74
2023/03/01 02:23:03;;;;;;;12.10;6.78;;;2.80;70.90;;;;;;5090680;28;20039;-73
2023/03/01 02:25:31;;;;;;;11.88;6.82;;;2.80;71.40;;;;;;5078147;28;20032;-73
2023/03/01 02:28:11;;;;;;;10.55;7.57;;;2.70;72.20;;;;;;5079555;28;20547;-74
2023/03/01 02:31:41;;;;;;;11.23;7.22;;;2.70;72.40;;;;;;5084632;28;20028;-74
2023/03/01 02:33:22;;;;;;;10.20;6.40;;;2.80;74.70;;;;;;5082297;28;20406;-73
2023/03/01 02:35:48;;;;;;;8.40;5.03;;;2.80;75.50;;;;;;5083199;28;20016;-75
2023/03/01 02:38:14;;;;;;;9.90;6.50;;;2.90;77.80;;;;;;5069731;28;20016;-75
2023/03/01 02:40:41;;;;;;;10.02;6.68;;;2.80;73.70;;;;;;5082077;28;20101;-74
2023/03/01 02:43:10;;;;;;;8.88;6.55;;;2.80;72.90;;;;;;5069592;28;20463;-74
2023/03/01 02:45:35;;;;;;;9.48;5.93;;;2.80;72.70;;;;;;5073536;28;20438;-74
2023/03/01 02:48:01;;;;;;;8.48;5.22;;;2.80;73.40;;;;;;5088965;28;20042;-75
2023/03/01 02:50:30;;;;;;;9.10;6.00;;;2.80;75.20;;;;;;5084191;28;20403;-74
2023/03/01 02:53:01;;;;;;;11.52;6.38;;;2.80;73.10;;;;;;5087628;28;20106;-75
2023/03/01 02:55:27;;;;;;;9.32;6.28;;;2.80;73.20;;;;;;5084580;28;20016;-74
2023/03/01 02:57:54;;;;;;;9.75;6.13;;;2.80;73.70;;;;;;5090928;28;20027;-74
2023/03/01 03:00:39;;;;;;;8.98;5.97;;;2.80;74.00;;;;;;5085232;28;20080;-75
2023/03/01 03:03:06;;;;;;;9.07;5.97;;;2.80;76.00;;;;;;5081080;28;20522;-75
2023/03/01 03:05:34;;;;;;;8.60;5.18;;;2.80;77.30;;;;;;5086784;28;20032;-74
2023/03/01 03:08:01;;;;;;;7.55;4.80;;;2.80;76.80;;;;;;5084124;28;20075;-75
2023/03/01 03:10:30;;;;;;;9.77;6.68;;;2.90;79.90;;;;;;5086501;28;20021;-73
2023/03/01 03:13:01;;;;;;;12.63;7.63;;;3.00;76.40;;;;;;5082404;28;20027;-74
2023/03/01 03:15:28;;;;;;;11.13;6.30;;;2.90;73.50;;;;;;5089061;28;20028;-75
2023/03/01 03:17:55;;;;;;;11.27;6.38;;;2.90;74.00;;;;;;5078869;28;20016;-74
2023/03/01 03:20:24;;;;;;;10.52;6.38;;;2.90;74.70;;;;;;5087611;28;20547;-74
2023/03/01 03:22:52;;;;;;;10.95;6.90;;;2.90;76.60;;;;;;5078657;28;20020;-73
2023/03/01 03:25:19;;;;;;;8.88;6.25;;;2.90;74.20;;;;;;5088713;28;20036;-76
2023/03/01 03:27:47;;;;;;;8.50;4.75;;;2.80;74.10;;;;;;5077973;28;20016;-75
2023/03/01 03:30:19;;;;;;;9.98;6.47;;;2.90;75.00;;;;;;5090088;28;20073;-75
2023/03/01 03:32:51;;;;;;;10.75;5.13;;;2.90;75.60;;;;;;5083319;28;20439;-73
2023/03/01 03:35:19;;;;;;;8.77;5.70;;;2.90;77.10;;;;;;5075508;28;20071;-74
2023/03/01 03:38:03;;;;;;;9.73;5.95;;;2.90;76.50;;;;;;5085870;28;20051;-74
2023/03/01 03:40:35;;;;;;;14.32;6.72;;;2.90;74.90;;;;;;5069831;28;20056;-75
2023/03/01 03:43:02;;;;;;;9.32;5.55;;;2.90;75.40;;;;;;5085886;28;20029;-74
2023/03/01 03:45:27;;;;;;;10.50;4.50;;;2.90;77.00;;;;;;5070019;28;20033;-73
2023/03/01 03:47:53;;;;;;;10.57;6.35;;;2.90;77.10;;;;;;5074832;28;20073;-73
2023/03/01 03:50:19;;;;;;;10.60;5.50;;;3.00;78.60;;;;;;5090621;28;20610;-73
2023/03/01 03:52:45;;;;;;;10.23;6.50;;;3.00;76.00;;;;;;5078780;28;20021;-73
2023/03/01 03:55:12;;;;;;;8.25;4.70;;;3.00;75.80;;;;;;5087533;28;20028;-74
2023/03/01 03:57:39;;;;;;;7.85;4.97;;;3.00;76.20;;;;;;5086546;28;20020;-74
2023/03/01 04:00:12;;;;;;;8.23;5.10;;;3.00;78.10;;;;;;5091615;28;20016;-74
2023/03/01 04:02:42;;;;;;;10.48;6.45;;;3.00;77.60;;;;;;5087980;28;20027;-73
2023/03/01 04:05:09;;;;;;;11.77;6.60;;;2.90;75.50;;;;;;5074699;28;20106;-73
2023/03/01 04:07:36;;;;;;;10.60;6.32;;;3.00;76.30;;;;;;5074661;28;20097;-75
2023/03/01 04:10:06;;;;;;;9.18;6.30;;;2.90;74.20;;;;;;5077807;28;20101;-75
2023/03/01 04:12:33;;;;;;;12.35;6.50;;;2.90;73.90;;;;;;5074168;28;20103;-74
2023/03/01 04:15:00;;;;;;;12.07;6.35;;;2.90;73.20;;;;;;5081169;28;20026;-74
2023/03/01 04:17:27;;;;;;;10.48;6.13;;;2.90;72.80;;;;;;5087963;28;20079;-74
2023/03/01 04:19:52;;;;;;;10.00;5.85;;;2.90;72.90;;;;;;5080698;28;20107;-74
2023/03/01 04:22:18;;;;;;;9.68;5.90;;;2.90;72.60;;;;;;5069478;28;20435;-74
2023/03/01 04:24:44;;;;;;;10.55;5.93;;;2.90;72.60;;;;;;5077317;28;20040;-75
2023/03/01 04:27:11;;;;;;;8.82;5.45;;;2.80;72.80;;;;;;5089423;28;20020;-73
2023/03/01 04:29:36;;;;;;;11.88;6.57;;;2.80;73.10;;;;;;5076197;28;20020;-73
2023/03/01 04:32:02;;;;;;;9.30;5.93;;;2.80;73.10;;;;;;5089258;28;20032;-74
2023/03/01 04:34:29;;;;;;;11.68;6.47;;;2.80;73.40;;;;;;5087265;28;20059;-73
2023/03/01 04:36:55;;;;;;;7.85;4.55;;;2.80;73.30;;;;;;5069282;28;20108;-74
2023/03/01 04:39:21;;;;;;;11.23;5.90;;;2.80;74.50;;;;;;5080595;28;20024;-74
2023/03/01 04:41:47;;;;;;;10.90;5.22;;;2.80;76.20;;;;;;5072989;28;20020;-75
2023/03/01 04:44:12;;;;;;;10.18;5.60;;;2.80;76.50;;;;;;5075880;28;20459;-74
2023/03/01 04:46:38;;;;;;;9.43;6.50;;;2.80;75.20;;;;;;5089433;28;20028;-75
2023/03/01 04:49:06;;;;;;;9.90;7.10;;;2.80;77.80;;;;;;5090602;28;20024;-75
2023/03/01 04:51:32;;;;;;;9.88;6.28;;;2.80;75.50;;;;;;5076135;28;20036;-74
2023/03/01 04:53:58;;;;;;;10.23;6.50;;;2.80;74.40;;;;;;5073446;28;20100;-74
2023/03/01 04:56:24;;;;;;;10.05;5.85;;;2.70;73.70;;;;;;5078955;28;20040;-73
2023/03/01 04:58:52;;;;;;;11.70;6.88;;;2.70;73.40;;;;;;5073695;28;20387;-74
2023/03/01 05:01:20;;;;;;;10.20;6.25;;;2.70;73.40;;;;;;5077562;28;20024;-75
2023/03/01 05:03:49;;;;;;;10.82;6.07;;;2.70;73.30;;;;;;5077542;28;20093;-74
2023/03/01 05:06:16;;;;;;;10.65;5.78;;;2.70;73.30;;;;;;5078840;28;20044;-75
2023/03/01 05:08:43;;;;;;;10.10;6.40;;;2.70;74.90;;;;;;5076897;28;20025;-74
2023/03/01 05:11:10;;;;;;;13.20;7.22;;;2.70;74.90;;;;;;5079741;28;20024;-75
2023/03/01 05:13:37;;;;;;;8.30;5.55;;;2.70;74.00;;;;;;5074301;28;20020;-74
2023/03/01 05:16:05;;;;;;;13.48;6.47;;;2.70;73.80;;;;;;5077792;28;20483;-74
2023/03/01 05:18:32;;;;;;;10.45;6.28;;;2.60;73.90;;;;;;5079196;28;20065;-74
2023/03/01 05:21:10;;;;;;;11.23;7.07;;;2.70;75.60;;;;;;5079745;28;20029;-74
2023/03/01 05:23:36;;;;;;;12.07;6.78;;;2.60;74.40;;;;;;5077393;28;20017;-74
2023/03/01 05:26:03;;;;;;;10.25;6.75;;;2.60;73.90;;;;;;5080448;28;20032;-74
2023/03/01 05:28:30;;;;;;;9.40;5.60;;;2.60;74.20;;;;;;5092148;28;20039;-74
2023/03/01 05:30:56;;;;;;;11.15;6.40;;;2.60;75.50;;;;;;5087053;28;20016;-75
2023/03/01 05:33:23;;;;;;;9.23;5.55;;;2.60;75.00;;;;;;5073826;28;20021;-74
2023/03/01 05:35:51;;;;;;;9.45;5.75;;;2.60;74.60;;;;;;5075565;28;20017;-73
2023/03/01 05:38:18;;;;;;;6.47;3.90;;;2.60;75.40;;;;;;5087045;28;20108;-75
2023/03/01 05:40:45;;;;;;;11.93;5.63;;;2.60;78.50;;;;;;5086972;28;20020;-75
2023/03/01 05:43:13;;;;;;;13.60;6.70;;;2.60;78.10;;;;;;5077981;28;20132;-75
2023/03/01 05:45:40;;;;;;;8.43;5.93;;;2.60;76.10;;;;;;5073190;28;20032;-74
2023/03/01 05:48:08;;;;;;;10.40;5.70;;;2.60;75.20;;;;;;5079673;28;20027;-74
2023/03/01 05:50:38;;;;;;;11.35;6.72;;;2.60;75.00;;;;;;5075872;28;20058;-74
2023/03/01 05:53:10;;;;;;;11.52;6.53;;;2.50;74.60;;;;;;5078235;28;20595;-74
2023/03/01 05:55:37;;;;;;;10.90;5.90;;;2.60;75.10;;;;;;5075070;28;20095;-73
2023/03/01 05:58:05;;;;;;;9.57;4.93;;;2.60;75.80;;;;;;5080248;28;20028;-75
2023/03/01 06:00:32;;;;;;;12.02;6.40;;;2.60;76.70;;;;;;5088210;28;20452;-74
2023/03/01 06:02:58;;;;;;;10.60;5.70;;;2.60;79.60;;;;;;5085355;28;20052;-75
2023/03/01 06:05:25;;;;;;;10.27;6.22;;;2.60;77.40;;;;;;5092818;28;20031;-75
2023/03/01 06:07:51;;;;;;;15.43;7.40;;;2.60;76.30;;;;;;5075982;28;20044;-74
2023/03/01 06:10:18;;;;;;;9.35;5.32;;;2.60;75.50;;;;;;5070113;28;20082;-75
2023/03/01 06:12:44;;;;;;;12.10;6.63;;;2.60;76.80;;;;;;5072861;28;20023;-74
2023/03/01 06:15:12;;;;;;;10.80;5.63;;;2.60;75.60;;;;;;5077085;28;20036;-74
2023/03/01 06:17:40;;;;;;;9.63;5.93;;;2.60;75.10;;;;;;5081903;28;20024;-75
2023/03/01 06:20:12;;;;;;;9.23;6.03;;;2.60;75.70;;;;;;5092182;28;20497;-73
2023/03/01 06:22:38;;;;;;;12.73;6.88;;;2.60;76.60;;;;;;5081264;28;20016;-75
2023/03/01 06:25:05;;;;;;;13.35;8.05;;;2.60;77.50;;;;;;5077113;28;20060;-74
2023/03/01 06:27:31;;;;;;;13.32;6.63;;;2.50;76.30;;;;;;5078362;28;20129;-75
2023/03/01 06:29:56;;;;;;;11.77;7.47;;;2.50;75.60;;;;;;5075252;28;20487;-75
2023/03/01 06:32:22;;;;;;;13.65;7.60;;;2.50;75.50;;;;;;5082720;28;20027;-76
2023/03/01 06:34:48;;;;;;;13.95;7.68;;;2.50;75.50;;;;;;5069783;28;20024;-76
2023/03/01 06:37:13;;;;;;;12.27;8.07;;;2.50;75.40;;;;;;5072910;28;20474;-77
2023/03/01 06:39:39;;;;;;;12.18;6.97;;;2.50;75.70;;;;;;5079145;28;20051;-75
2023/03/01 06:42:05;;;;;;;12.88;7.70;;;2.70;75.40;;;;;;5078878;28;20020;-76
2023/03/01 06:44:30;;;;;;;12.68;6.78;;;2.80;75.70;;;;;;5078701;28;20502;-75
2023/03/01 06:46:56;;;;;;;12.57;7.75;;;3.00;74.80;;;;;;5068656;28;20741;-74
2023/03/01 06:49:22;;;;;;;11.00;6.85;;;3.20;73.60;;;;;;5085550;28;20020;-74
2023/03/01 06:51:47;;;;;;;11.95;6.75;;;3.40;72.60;;;;;;5088860;28;20020;-75
2023/03/01 06:54:13;;;;;;;10.82;6.72;;;3.50;72.10;;;;;;5084561;28;20021;-76
2023/03/01 06:56:39;;;;;;;10.13;6.78;;;3.70;71.60;;;;;;5077651;28;20055;-76
2023/03/01 06:59:05;;;;;;;11.20;6.28;;;3.90;71.30;;;;;;5075527;28;20024;-76
2023/03/01 07:01:31;;;;;;;12.77;7.22;;;4.00;70.90;;;;;;5079002;28;20025;-76
2023/03/01 07:03:57;;;;;;;9.85;6.10;;;4.20;70.20;;;;;;5071792;28;20020;-75
2023/03/01 07:06:23;;;;;;;13.18;6.70;;;4.40;69.90;;;;;;5075850;28;20483;-75
2023/03/01 07:08:50;;;;;;;10.77;7.07;;;4.50;69.20;;;;;;5072274;28;20127;-76
2023/03/01 07:11:15;;;;;;;11.23;6.70;;;4.60;68.60;;;;;;5078704;28;20111;-76
2023/03/01 07:13:41;;;;;;;11.38;6.72;;;4.80;68.10;;;;;;5076578;28;20028;-75
2023/03/01 07:16:07;;;;;;;9.88;6.07;;;5.00;67.70;;;;;;5076955;28;20025;-75
2023/03/01 07:18:33;;;;;;;11.77;6.50;;;5.20;67.10;;;;;;5070641;28;20048;-76
2023/03/01 07:21:04;;;;;;;11.77;6.95;;;5.30;66.50;;;;;;5088485;28;20482;-76
2023/03/01 07:23:29;;;;;;;11.05;6.28;;;5.40;65.80;;;;;;5074503;28;20534;-75
2023/03/01 07:25:55;;;;;;;10.85;6.22;;;5.50;65.60;;;;;;5079004;28;20032;-75
2023/03/01 07:28:23;;;;;;;16.45;6.32;;;5.60;65.40;;;;;;5075000;28;20032;-75
2023/03/01 07:30:49;;;;;;;8.35;5.28;;;5.70;64.40;;;;;;5074559;28;20044;-76
2023/03/01 07:33:14;;;;;;;9.18;4.85;;;5.80;64.40;;;;;;5086944;28;20055;-75
2023/03/01 07:35:40;;;;;;;9.50;5.57;;;5.90;64.00;;;;;;5085354;28;20077;-76
2023/03/01 07:38:06;;;;;;;10.80;6.07;;;6.10;63.60;;;;;;5077322;28;20032;-77
2023/03/01 07:40:31;;;;;;;11.63;6.03;;;6.20;63.20;;;;;;5084731;28;20031;-74
2023/03/01 07:42:58;;;;;;;10.00;5.65;;;6.30;62.90;;;;;;5082303;28;20035;-76
2023/03/01 07:45:25;;;;;;;11.43;6.13;;;6.40;63.20;;;;;;5074053;28;20498;-75
2023/03/01 07:47:55;;;;;;;7.82;5.65;;;6.40;62.80;;;;;;5072679;28;20078;-77
2023/03/01 07:50:21;;;;;;;10.40;5.38;;;6.50;62.00;;;;;;5077885;28;20020;-76
2023/03/01 07:52:49;;;;;;;12.77;6.38;;;6.50;61.30;;;;;;5083871;28;20029;-76
2023/03/01 07:55:16;;;;;;;7.47;3.92;;;6.60;62.00;;;;;;5074097;28;20016;-77
2023/03/01 07:57:42;;;;;;;9.30;5.40;;;6.80;69.80;;;;;;5072325;28;20033;-77
2023/03/01 08:00:11;;;;;;;9.73;4.88;;;6.90;64.30;;;;;;5070070;28;20020;-76
2023/03/01 08:02:36;;;;;;;12.02;5.93;;;7.00;62.40;;;;;;5075648;28;20419;-76
2023/03/01 08:05:02;;;;;;;8.95;6.20;;;7.00;60.60;;;;;;5074787;28;20115;-76
2023/03/01 08:07:29;;;;;;;14.10;5.72;;;7.10;59.50;;;;;;5087246;28;20097;-76
2023/03/01 08:09:54;;;;;;;9.68;6.20;;;7.20;59.60;;;;;;5073483;28;20320;-76
2023/03/01 08:12:20;;;;;;;10.88;5.18;;;7.30;59.20;;;;;;5067873;28;20021;-75
2023/03/01 08:14:46;;;;;;;9.63;4.93;;;7.40;59.40;;;;;;5067859;28;20075;-76
2023/03/01 08:17:14;;;;;;;13.18;6.22;;;7.60;64.30;;;;;;5073577;28;20021;-76
2023/03/01 08:19:39;;;;;;;10.25;5.70;;;7.70;60.20;;;;;;5084776;28;20175;-76
2023/03/01 08:22:06;;;;;;;9.30;5.65;;;7.60;58.10;;;;;;5075572;28;20475;-76
2023/03/01 08:24:32;;;;;;;7.50;4.97;;;7.70;57.90;;;;;;5075151;28;20690;-76
2023/03/01 08:26:57;;;;;;;10.02;5.55;;;7.80;61.60;;;;;;5069954;28;20060;-78
2023/03/01 08:29:24;;;;;;;8.18;4.57;;;7.70;57.20;;;;;;5081852;28;20020;-77
2023/03/01 08:31:50;;;;;;;10.73;5.50;;;7.80;58.80;;;;;;5076333;28;20012;-76
2023/03/01 08:34:17;;;;;;;9.63;5.60;;;8.00;64.30;;;;;;5074355;28;20029;-76
2023/03/01 08:36:45;;;;;;;12.07;6.47;;;8.00;60.70;;;;;;5083244;28;20098;-75
2023/03/01 08:39:14;;;;;;;8.27;5.35;;;8.20;58.20;;;;;;5072118;28;20037;-76
2023/03/01 08:41:40;;;;;;;10.05;5.28;;;8.30;57.80;;;;;;5071005;28;20028;-76
2023/03/01 08:44:07;;;;;;;10.68;5.35;;;8.40;56.10;;;;;;5080718;28;20059;-77
2023/03/01 08:46:38;;;;;;;8.93;5.00;;;8.40;60.00;;;;;;5069264;28;20352;-76
2023/03/01 08:49:08;;;;;;;8.98;5.97;;;8.40;56.50;;;;;;5077212;28;20044;-75
2023/03/01 08:51:36;;;;;;;8.38;4.93;;;8.50;55.20;;;;;;5071398;28;20026;-76
2023/03/01 08:54:09;;;;;;;8.93;5.07;;;8.60;61.80;;;;;;5072923;28;20020;-75
2023/03/01 08:56:35;;;;;;;7.53;4.72;;;8.70;58.30;;;;;;5076795;28;20453;-76
2023/03/01 08:59:01;;;;;;;9.63;4.93;;;8.60;54.90;;;;;;5081266;28;20048;-75
2023/03/01 09:01:26;;;;;;;8.98;3.83;;;8.60;56.80;;;;;;5072485;28;20036;-73
2023/03/01 09:03:52;;;;;;;9.75;5.40;;;8.60;55.90;;;;;;5076872;28;20051;-77
2023/03/01 09:06:18;;;;;;;8.60;4.00;;;8.60;54.00;;;;;;5090547;28;20078;-78
2023/03/01 09:08:46;;;;;;;8.18;4.03;;;8.70;62.70;;;;;;5077582;28;20484;-78
2023/03/01 09:11:15;;;;;;;9.48;5.13;;;8.80;65.10;;;;;;5083862;28;20024;-78
2023/03/01 09:13:41;;;;;;;8.05;4.68;;;9.00;56.40;;;;;;5081491;28;20020;-77
2023/03/01 09:16:08;;;;;;;9.30;5.05;;;9.10;54.00;;;;;;5075041;28;20029;-77
2023/03/01 09:18:35;;;;;;;6.85;3.97;;;9.30;54.40;;;;;;5080742;28;20683;-79
2023/03/01 09:21:13;;;;;;;8.73;4.65;;;9.40;66.60;;;;;;5079967;28;20024;-78
2023/03/01 09:23:41;;;;;;;9.95;5.70;;;9.50;62.70;;;;;;5074624;28;20048;-78
2023/03/01 09:26:12;;;;;;;6.57;3.88;;;9.50;54.50;;;;;;5076272;28;20079;-78
2023/03/01 09:28:39;;;;;;;9.32;4.65;;;9.60;55.40;;;;;;5089020;28;20016;-77
2023/03/01 09:31:05;;;;;;;6.72;3.90;;;9.60;51.70;;;;;;5090854;28;20103;-77
2023/03/01 09:33:32;;;;;;;6.70;4.28;;;9.70;64.30;;;;;;5080710;28;20112;-78
2023/03/01 09:36:00;;;;;;;7.22;4.00;;;9.60;54.90;;;;;;5084730;28;20036;-76
2023/03/01 09:38:26;;;;;;;7.43;3.85;;;9.60;53.90;;;;;;5076325;28;20539;-79
2023/03/01 09:40:52;;;;;;;11.65;5.60;;;9.70;60.60;;;;;;5085191;28;20020;-79
2023/03/01 09:43:27;;;;;;;8.65;5.32;;;9.70;52.90;;;;;;5072591;28;20394;-78
2023/03/01 09:45:55;;;;;;;11.40;6.32;;;9.80;53.70;;;;;;5078170;28;20024;-78
2023/03/01 09:48:25;;;;;;;7.47;4.35;;;10.00;55.60;;;;;;5079160;28;20028;-78
2023/03/01 09:50:52;;;;;;;;;;;10.20;60.00;;;;;;5079415;28;20027;-76
2023/03/01 09:53:24;;;;;;;11.38;7.80;;;10.10;51.40;;;;;;5073810;28;19908;-78
2023/03/01 09:56:24;;;;;;;8.80;5.28;;;10.10;49.00;;;;;;5088045;28;20023;-78
2023/03/01 09:59:46;;;;;;;8.15;5.53;;;10.10;62.60;;;;;;5088909;28;20024;-78
2023/03/01 10:02:53;;;;;;;11.40;7.68;;;10.20;66.20;;;;;;5004507;28;20112;-77
2023/03/01 10:06:11;;;;;;;11.75;7.68;;;10.40;61.10;;;;;;5008671;28;20038;-76
2023/03/01 10:09:11;;;;;;;9.75;6.32;;;10.20;51.30;;;;;;5066535;28;20055;-77
2023/03/01 10:11:41;;;;;;;8.77;5.67;;;10.30;57.60;;;;;;5084748;28;20042;-78
2023/03/01 10:14:23;;;;;;;12.75;6.55;;;10.10;54.20;;;;;;5072975;28;20032;-77
2023/03/01 10:16:57;;;;;;;10.85;7.35;;;10.00;53.70;;;;;;5080930;28;20427;-78
2023/03/01 10:19:30;;;;;;;13.88;8.13;;;10.00;50.00;;;;;;5071202;28;20356;-75
2023/03/01 10:22:05;;;;;;;9.40;5.97;;;10.00;49.30;;;;;;5075533;28;20082;-77
2023/03/01 10:24:35;;;;;;;8.88;4.85;;;9.90;53.00;;;;;;5072512;28;20020;-74
2023/03/01 10:27:18;;;;;;;7.45;4.95;;;10.10;55.90;;;;;;5084445;28;20031;-78
2023/03/01 10:30:02;;;;;;;10.07;6.50;;;10.20;52.10;;;;;;5084685;28;20108;-77
2023/03/01 10:32:28;;;;;;;9.90;5.90;;;10.30;50.80;;;;;;5080952;28;20054;-77
2023/03/01 10:34:54;;;;;;;9.45;6.20;;;10.50;56.30;;;;;;5076766;28;20025;-77
2023/03/01 10:37:22;;;;;;;9.00;5.85;;;10.70;48.90;;;;;;5079627;28;20103;-77
2023/03/01 10:40:07;;;;;;;10.25;5.95;;;10.60;53.30;;;;;;5073251;28;20028;-77
2023/03/01 10:42:37;;;;;;;10.02;6.20;;;10.70;51.00;;;;;;5087382;28;20028;-78
2023/03/01 10:45:25;;;;;;;9.57;6.20;;;10.80;52.00;;;;;;5088327;28;20151;-78
2023/03/01 10:48:06;;;;;;;7.32;4.53;;;11.00;50.40;;;;;;5078027;28;20016;-76
2023/03/01 10:50:33;;;;;;;9.77;5.65;;;11.00;56.40;;;;;;5087948;28;20087;-78
2023/03/01 10:53:01;;;;;;;10.27;6.40;;;11.20;53.80;;;;;;5080827;28;20378;-78
2023/03/01 10:55:37;;;;;;;10.77;5.80;;;11.40;50.10;;;;;;5074144;28;20098;-78
2023/03/01 10:58:14;;;;;;;8.63;4.97;;;11.50;47.50;;;;;;5080758;28;20024;-79
2023/03/01 11:00:51;;;;;;;9.23;5.60;;;11.50;50.00;;;;;;5070543;28;20016;-76
2023/03/01 11:03:23;;;;;;;7.43;4.57;;;11.70;47.90;;;;;;5075062;28;20020;-75
2023/03/01 11:06:01;;;;;;;8.48;4.05;;;11.70;45.90;;;;;;5069464;28;20044;-77
2023/03/01 11:08:31;;;;;;;7.85;4.25;;;11.70;55.70;;;;;;5080872;28;20027;-77
2023/03/01 11:11:12;;;;;;;7.75;3.08;;;11.90;59.20;;;;;;5075742;28;20034;-77
2023/03/01 11:13:54;;;;;;;8.32;3.67;;;12.10;78.50;;;;;;5085006;28;20028;-77
2023/03/01 11:16:35;;;;;;;7.55;4.50;;;12.30;78.40;;;;;;5076624;28;20043;-77
2023/03/01 11:19:17;;;;;;;7.95;3.97;;;12.30;60.60;;;;;;5079627;28;20052;-77
2023/03/01 11:21:47;;;;;;;8.20;4.72;;;12.30;53.20;;;;;;5071684;28;20421;-77
2023/03/01 11:24:15;;;;;;;9.40;4.00;;;12.30;49.20;;;;;;5085733;28;20035;-77
2023/03/01 11:26:46;;;;;;;8.60;4.28;;;12.40;58.60;;;;;;5069238;28;20029;-76
2023/03/01 11:29:25;;;;;;;6.10;2.80;;;12.30;52.20;;;;;;5080149;28;20028;-78
2023/03/01 11:31:52;;;;;;;10.40;3.90;;;12.40;72.90;;;;;;5070067;28;20502;-76
2023/03/01 11:34:32;;;;;;;7.25;3.97;;;12.50;69.00;;;;;;5076649;28;20075;-77
2023/03/01 11:37:03;;;;;;;6.30;2.97;;;12.60;63.20;;;;;;5075763;28;20024;-77
2023/03/01 11:39:37;;;;;;;6.00;3.35;;;12.70;76.90;;;;;;5071629;28;20111;-78
2023/03/01 11:42:12;;;;;;;6.45;4.15;;;12.90;66.00;;;;;;5081456;28;20095;-77
2023/03/01 11:44:39;;;;;;;7.63;4.32;;;13.00;54.70;;;;;;5077791;28;20583;-77
2023/03/01 11:47:05;;;;;;;12.02;5.25;;;13.10;73.70;;;;;;5085722;28;20030;-78
2023/03/01 11:49:55;;;;;;;8.75;4.57;;;13.30;71.00;;;;;;5075985;28;20094;-78
2023/03/01 11:52:27;;;;;;;10.15;5.22;;;13.30;55.30;;;;;;5071250;28;20031;-78
2023/03/01 11:55:20;;;;;;;8.57;5.45;;;13.40;54.90;;;;;;5081598;28;20539;-78
2023/03/01 11:58:07;;;;;;;7.13;4.47;;;13.30;46.50;;;;;;5069721;28;20029;-77
2023/03/01 12:01:01;;;;;;;8.05;5.00;;;13.20;53.60;;;;;;5071741;28;20020;-78
2023/03/01 12:03:48;;;;;;;9.10;4.22;;;12.80;44.10;;;;;;5075663;28;20091;-78
2023/03/01 12:06:25;;;;;;;7.80;4.57;;;12.90;55.30;;;;;;5080872;28;20055;-80
2023/03/01 12:08:59;;;;;;;5.93;2.72;;;13.10;61.70;;;;;;5075030;28;20886;-77
2023/03/01 12:11:49;;;;;;;5.07;2.78;;;13.20;73.20;;;;;;5073203;28;20048;-78
2023/03/01 12:14:27;;;;;;;7.18;3.90;;;13.50;80.60;;;;;;5083621;28;20482;-79
2023/03/01 12:17:30;;;;;;;7.88;4.00;;;13.60;67.80;;;;;;5084222;28;20024;-79
2023/03/01 12:19:58;;;;;;;7.82;4.45;;;13.70;63.00;;;;;;5081451;28;20440;-77
2023/03/01 12:22:38;;;;;;;7.53;5.00;;;13.80;60.50;;;;;;5087785;28;20363;-78
2023/03/01 12:25:34;;;;;;;4.82;2.55;;;14.00;66.30;;;;;;5077222;28;20036;-78
2023/03/01 12:28:34;;;;;;;7.80;4.72;;;14.10;78.10;;;;;;5068054;28;20059;-77
2023/03/01 12:31:13;;;;;;;6.00;3.42;;;14.30;66.70;;;;;;5077097;28;20114;-78
2023/03/01 12:33:51;;;;;;;7.35;4.70;;;14.40;75.10;;;;;;5075883;28;20395;-78
2023/03/01 12:36:23;;;;;;;7.03;3.40;;;14.30;67.00;;;;;;5076929;28;20024;-77
2023/03/01 12:39:08;;;;;;;7.93;3.97;;;14.20;78.30;;;;;;5088576;28;20027;-77
2023/03/01 12:41:43;;;;;;;4.47;2.60;;;14.30;72.70;;;;;;5074469;28;20039;-78
2023/03/01 12:44:23;;;;;;;5.45;3.15;;;14.30;77.10;;;;;;5074884;28;20024;-78
2023/03/01 12:46:55;;;;;;;6.18;3.83;;;14.60;82.50;;;;;;5081660;28;20031;-78
2023/03/01 12:49:47;;;;;;;8.50;5.20;;;14.60;64.90;;;;;;5088322;28;20049;-77
2023/03/01 12:52:35;;;;;;;4.85;2.33;;;14.60;55.90;;;;;;5077172;28;20071;-79
2023/03/01 12:55:07;;;;;;;6.22;3.05;;;14.70;78.30;;;;;;5081142;28;20052;-78
2023/03/01 12:57:46;;;;;;;7.05;3.53;;;14.80;78.70;;;;;;5086897;28;20028;-79
2023/03/01 13:00:37;;;;;;;7.27;2.57;;;14.70;71.20;;;;;;5089406;28;20402;-78
2023/03/01 13:03:27;;;;;;;6.80;3.58;;;14.80;83.50;;;;;;5083843;28;20098;-78
2023/03/01 13:06:27;;;;;;;6.20;3.03;;;14.90;78.70;;;;;;5082119;28;20035;-79
2023/03/01 13:09:07;;;;;;;6.43;4.25;;;15.10;83.80;;;;;;5030785;28;20036;-78